createdAt,value
2023-02-28T00:00:28.564Z,-2.50
2023-02-28T00:02:55.176Z,-2.50
2023-02-28T00:05:23.198Z,-2.60
2023-02-28T00:07:50.209Z,-2.60
2023-02-28T00:10:21.756Z,-2.60
2023-02-28T00:12:48.868Z,-2.60
2023-02-28T00:15:15.513Z,-2.70
2023-02-28T00:17:42.455Z,-2.70
2023-02-28T00:20:10.985Z,-2.70
2023-02-28T00:22:38.456Z,-2.80
2023-02-28T00:25:05.649Z,-2.80
2023-02-28T00:27:32.283Z,-2.80
2023-02-28T00:29:58.950Z,-2.80
2023-02-28T00:32:25.597Z,-2.80
2023-02-28T00:34:52.247Z,-2.90
2023-02-28T00:37:18.962Z,-2.90
2023-02-28T00:39:45.612Z,-3.00
2023-02-28T00:42:12.226Z,-3.00
2023-02-28T00:44:38.857Z,-3.10
2023-02-28T00:47:05.736Z,-3.10
2023-02-28T00:49:32.353Z,-3.10
2023-02-28T00:51:59.047Z,-3.10
2023-02-28T00:54:25.650Z,-3.20
2023-02-28T00:56:52.292Z,-3.20
2023-02-28T00:59:19.078Z,-3.20
2023-02-28T01:01:46.941Z,-3.30
2023-02-28T01:04:13.684Z,-3.30
2023-02-28T01:06:40.416Z,-3.30
2023-02-28T01:09:08.091Z,-3.30
2023-02-28T01:11:35.548Z,-3.40
2023-02-28T01:14:02.451Z,-3.40
2023-02-28T01:16:29.228Z,-3.40
2023-02-28T01:18:55.821Z,-3.40
2023-02-28T01:21:22.505Z,-3.40
2023-02-28T01:23:49.503Z,-3.40
2023-02-28T01:26:16.050Z,-3.40
2023-02-28T01:28:42.748Z,-3.40
2023-02-28T01:31:09.866Z,-3.50
2023-02-28T01:33:36.891Z,-3.50
2023-02-28T01:36:05.144Z,-3.50
2023-02-28T01:38:31.905Z,-3.50
2023-02-28T01:40:58.539Z,-3.50
2023-02-28T01:43:26.614Z,-3.50
2023-02-28T01:45:54.486Z,-3.50
2023-02-28T01:48:23.008Z,-3.50
2023-02-28T01:50:50.428Z,-3.50
2023-02-28T01:53:19.132Z,-3.60
2023-02-28T01:55:48.242Z,-3.60
2023-02-28T01:58:15.274Z,-3.60
2023-02-28T02:00:43.582Z,-3.60
2023-02-28T02:03:11.815Z,-3.60
2023-02-28T02:05:39.972Z,-3.60
2023-02-28T02:08:09.970Z,-3.60
2023-02-28T02:10:40.628Z,-3.60
2023-02-28T02:13:25.809Z,-3.60
2023-02-28T02:16:11.334Z,-3.60
2023-02-28T02:18:41.190Z,-3.70
2023-02-28T02:21:19.985Z,-3.70
2023-02-28T02:23:49.681Z,-3.70
2023-02-28T02:26:34.964Z,-3.70
2023-02-28T02:29:24.919Z,-3.70
2023-02-28T02:32:08.599Z,-3.70
2023-02-28T02:34:41.233Z,-3.70
2023-02-28T02:37:10.928Z,-3.70
2023-02-28T02:39:46.775Z,-3.70
2023-02-28T02:42:16.309Z,-3.70
2023-02-28T02:44:56.544Z,-3.60
2023-02-28T02:47:25.429Z,-3.70
2023-02-28T02:49:53.686Z,-3.70
2023-02-28T02:52:22.851Z,-3.60
2023-02-28T02:54:50.953Z,-3.70
2023-02-28T02:57:22.176Z,-3.60
2023-02-28T02:59:50.768Z,-3.70
2023-02-28T03:02:18.767Z,-3.60
2023-02-28T03:05:01.483Z,-3.60
2023-02-28T03:07:28.465Z,-3.60
2023-02-28T03:09:56.168Z,-3.60
2023-02-28T03:12:25.666Z,-3.60
2023-02-28T03:14:55.309Z,-3.50
2023-02-28T03:17:21.876Z,-3.50
2023-02-28T03:19:52.669Z,-3.50
2023-02-28T03:22:19.352Z,-3.50
2023-02-28T03:24:52.645Z,-3.50
2023-02-28T03:27:25.608Z,-3.50
2023-02-28T03:29:56.789Z,-3.50
2023-02-28T03:32:42.175Z,-3.50
2023-02-28T03:35:11.784Z,-3.50
2023-02-28T03:37:40.452Z,-3.50
2023-02-28T03:40:14.055Z,-3.40
2023-02-28T03:42:43.135Z,-3.40
2023-02-28T03:45:12.193Z,-3.40
2023-02-28T03:47:46.506Z,-3.40
2023-02-28T03:50:24.261Z,-3.40
2023-02-28T03:53:14.389Z,-3.40
2023-02-28T03:55:51.748Z,-3.40
2023-02-28T03:58:26.182Z,-2.40
2023-02-28T04:03:38.017Z,-3.30
2023-02-28T04:06:05.299Z,-3.30
2023-02-28T04:08:31.932Z,-3.30
2023-02-28T04:11:04.403Z,-3.30
2023-02-28T04:27:01.505Z,-3.10
2023-02-28T04:29:29.370Z,-3.00
2023-02-28T04:31:58.995Z,-3.00
2023-02-28T04:34:26.676Z,-3.00
2023-02-28T04:37:10.375Z,-3.00
2023-02-28T04:39:38.994Z,-2.20
2023-02-28T04:42:06.013Z,-3.00
2023-02-28T04:44:33.099Z,-2.60
2023-02-28T04:46:59.899Z,-2.90
2023-02-28T04:49:26.803Z,-3.00
2023-02-28T04:51:54.160Z,-3.00
2023-02-28T04:54:21.113Z,-3.00
2023-02-28T04:56:49.562Z,-2.90
2023-02-28T04:59:16.199Z,-2.90
2023-02-28T05:01:46.785Z,-2.90
2023-02-28T05:04:13.581Z,-3.00
2023-02-28T05:06:40.524Z,-2.90
2023-02-28T05:09:07.216Z,-0.90
2023-02-28T05:11:36.265Z,-2.90
2023-02-28T05:14:04.961Z,-2.90
2023-02-28T05:16:32.287Z,-2.90
2023-02-28T05:18:59.227Z,-2.90
2023-02-28T05:21:28.503Z,-2.80
2023-02-28T05:23:55.978Z,-2.90
2023-02-28T05:26:23.345Z,-2.90
2023-02-28T05:28:50.207Z,-2.90
2023-02-28T05:31:16.959Z,-2.90
2023-02-28T05:33:43.787Z,-2.90
2023-02-28T05:36:10.484Z,0.30
2023-02-28T05:38:38.885Z,-2.80
2023-02-28T05:41:06.562Z,-2.90
2023-02-28T05:43:33.461Z,-2.90
2023-02-28T05:46:00.259Z,-2.90
2023-02-28T05:48:27.072Z,-2.90
2023-02-28T05:50:53.829Z,-2.90
2023-02-28T05:53:20.755Z,-2.90
2023-02-28T05:55:47.422Z,-2.90
2023-02-28T05:58:14.110Z,-2.90
2023-02-28T06:00:42.343Z,-2.90
2023-02-28T06:03:09.245Z,-2.90
2023-02-28T06:05:36.100Z,-2.90
2023-02-28T06:08:02.790Z,-3.00
2023-02-28T06:10:29.495Z,-2.90
2023-02-28T06:12:56.237Z,-2.90
2023-02-28T06:15:22.935Z,-0.80
2023-02-28T06:17:49.640Z,-0.50
2023-02-28T06:20:16.536Z,-2.90
2023-02-28T06:22:43.992Z,-3.00
2023-02-28T06:25:11.394Z,-3.00
2023-02-28T06:27:38.072Z,-2.90
2023-02-28T06:30:04.961Z,-2.90
2023-02-28T06:32:31.661Z,-2.90
2023-02-28T06:34:59.200Z,-0.30
2023-02-28T06:37:28.928Z,-2.90
2023-02-28T06:39:56.914Z,-1.20
2023-02-28T06:42:26.724Z,-2.90
2023-02-28T06:44:53.671Z,-2.90
2023-02-28T06:47:20.458Z,-2.90
2023-02-28T06:49:47.270Z,-2.90
2023-02-28T06:52:14.092Z,-2.80
2023-02-28T06:54:40.883Z,-2.90
2023-02-28T06:57:07.666Z,-2.80
2023-02-28T06:59:36.196Z,-2.80
2023-02-28T07:02:03.241Z,-2.80
2023-02-28T07:04:29.932Z,-2.20
2023-02-28T07:06:57.977Z,-2.70
2023-02-28T07:09:24.745Z,-2.70
2023-02-28T07:11:51.586Z,-2.60
2023-02-28T07:14:18.431Z,-2.60
2023-02-28T07:16:46.639Z,-2.50
2023-02-28T07:19:13.790Z,-2.50
2023-02-28T07:21:40.697Z,-2.50
2023-02-28T07:24:07.530Z,-2.50
2023-02-28T07:26:35.925Z,-2.40
2023-02-28T07:29:03.433Z,-2.40
2023-02-28T07:31:30.378Z,-2.30
2023-02-28T07:33:57.471Z,-2.30
2023-02-28T07:36:24.196Z,-2.30
2023-02-28T07:38:51.304Z,-2.30
2023-02-28T07:41:22.399Z,-2.20
2023-02-28T07:43:49.239Z,-2.20
2023-02-28T07:46:16.621Z,-2.20
2023-02-28T07:48:43.429Z,-1.30
2023-02-28T07:51:10.184Z,-2.20
2023-02-28T07:53:36.891Z,-2.10
2023-02-28T07:56:03.686Z,-2.10
2023-02-28T07:58:31.126Z,-2.00
2023-02-28T08:00:58.285Z,-2.10
2023-02-28T08:03:25.723Z,-2.00
2023-02-28T08:05:53.713Z,-2.00
2023-02-28T08:08:20.453Z,-2.00
2023-02-28T08:10:47.107Z,-1.90
2023-02-28T08:13:13.842Z,-2.00
2023-02-28T08:15:42.029Z,-1.90
2023-02-28T08:18:09.802Z,-1.90
2023-02-28T08:20:36.474Z,-1.90
2023-02-28T08:23:03.170Z,-1.90
2023-02-28T08:25:29.846Z,-1.80
2023-02-28T08:27:56.480Z,-1.90
2023-02-28T08:30:23.164Z,-1.80
2023-02-28T08:32:49.888Z,-0.50
2023-02-28T08:35:29.679Z,-1.80
2023-02-28T08:37:56.429Z,-1.80
2023-02-28T08:40:23.120Z,-1.80
2023-02-28T08:42:50.597Z,-1.70
2023-02-28T08:45:17.339Z,-1.70
2023-02-28T08:47:44.076Z,-1.70
2023-02-28T08:50:11.019Z,-1.70
2023-02-28T08:52:39.509Z,-1.70
2023-02-28T08:55:06.557Z,-1.70
2023-02-28T08:57:33.997Z,-1.60
2023-02-28T09:00:00.739Z,-0.30
2023-02-28T09:02:27.680Z,-1.60
2023-02-28T09:04:54.435Z,-1.50
2023-02-28T09:07:21.161Z,-0.70
2023-02-28T09:09:57.016Z,-1.40
2023-02-28T09:12:24.327Z,-1.40
2023-02-28T09:14:51.017Z,-1.40
2023-02-28T09:17:18.056Z,-1.40
2023-02-28T09:19:45.003Z,-1.40
2023-02-28T09:22:12.253Z,-0.70
2023-02-28T09:27:06.794Z,-1.40
2023-02-28T09:29:34.601Z,-1.00
2023-02-28T09:32:02.043Z,-1.30
2023-02-28T09:34:31.979Z,-1.20
2023-02-28T09:36:58.880Z,-1.20
2023-02-28T09:39:27.821Z,1.60
2023-02-28T09:41:55.570Z,-1.10
2023-02-28T09:44:34.548Z,-1.00
2023-02-28T09:47:08.371Z,-1.10
2023-02-28T09:49:40.606Z,-1.10
2023-02-28T09:52:11.650Z,-1.00
2023-02-28T09:54:38.698Z,-1.00
2023-02-28T09:57:05.337Z,-0.90
2023-02-28T09:59:41.269Z,-0.80
2023-02-28T10:02:19.987Z,-0.80
2023-02-28T10:04:53.530Z,-0.70
2023-02-28T10:07:28.279Z,-0.70
2023-02-28T10:09:56.397Z,-0.60
2023-02-28T10:12:23.254Z,-0.70
2023-02-28T10:14:51.837Z,-0.80
2023-02-28T10:17:26.594Z,-0.80
2023-02-28T10:19:56.248Z,-0.80
2023-02-28T10:22:33.241Z,-0.80
2023-02-28T10:25:05.088Z,-0.80
2023-02-28T10:27:33.678Z,-0.70
2023-02-28T10:30:01.455Z,1.70
2023-02-28T10:32:29.882Z,-0.60
2023-02-28T10:35:08.450Z,-0.50
2023-02-28T10:37:39.593Z,-0.50
2023-02-28T10:40:09.575Z,-0.40
2023-02-28T10:42:39.952Z,-1.90
2023-02-28T10:45:08.567Z,-0.40
2023-02-28T10:47:40.543Z,-0.40
2023-02-28T10:50:07.231Z,-0.40
2023-02-28T10:52:36.689Z,-0.30
2023-02-28T10:55:23.781Z,-0.20
2023-02-28T10:57:50.815Z,-0.20
2023-02-28T11:00:20.312Z,0.00
2023-02-28T11:02:47.623Z,1.00
2023-02-28T11:05:33.613Z,0.10
2023-02-28T11:08:16.851Z,0.00
2023-02-28T11:10:54.644Z,0.00
2023-02-28T11:13:23.889Z,0.00
2023-02-28T11:15:52.827Z,0.00
2023-02-28T11:18:25.533Z,0.10
2023-02-28T11:20:54.040Z,0.10
2023-02-28T11:23:21.322Z,0.20
2023-02-28T11:25:49.667Z,0.20
2023-02-28T11:28:28.571Z,0.30
2023-02-28T11:31:03.060Z,0.40
2023-02-28T11:33:31.567Z,0.40
2023-02-28T11:36:00.194Z,0.60
2023-02-28T11:38:27.533Z,0.50
2023-02-28T11:40:56.856Z,0.60
2023-02-28T11:43:29.552Z,0.50
2023-02-28T11:46:18.023Z,0.70
2023-02-28T11:49:16.875Z,0.80
2023-02-28T11:52:01.486Z,1.00
2023-02-28T11:54:30.901Z,1.10
2023-02-28T11:57:16.342Z,1.10
2023-02-28T11:59:57.598Z,1.20
2023-02-28T12:02:45.284Z,1.20
2023-02-28T12:05:17.137Z,1.10
2023-02-28T12:07:46.446Z,1.00
2023-02-28T12:10:27.027Z,1.10
2023-02-28T12:13:05.000Z,1.10
2023-02-28T12:15:31.575Z,1.30
2023-02-28T12:18:01.166Z,1.30
2023-02-28T12:20:46.537Z,1.40
2023-02-28T12:23:22.398Z,1.30
2023-02-28T12:26:10.496Z,1.20
2023-02-28T12:28:45.258Z,1.20
2023-02-28T12:31:15.310Z,1.10
2023-02-28T12:33:44.794Z,1.00
2023-02-28T12:36:13.213Z,0.90
2023-02-28T12:38:45.612Z,1.00
2023-02-28T12:41:30.887Z,1.00
2023-02-28T12:44:07.030Z,1.10
2023-02-28T12:46:36.420Z,1.20
2023-02-28T12:49:07.078Z,1.30
2023-02-28T12:51:35.692Z,1.40
2023-02-28T12:54:14.502Z,1.40
2023-02-28T12:57:01.817Z,1.50
2023-02-28T12:59:31.559Z,1.70
2023-02-28T13:01:58.401Z,0.80
2023-02-28T13:04:33.969Z,1.90
2023-02-28T13:07:19.312Z,1.90
2023-02-28T13:09:53.324Z,2.10
2023-02-28T13:12:21.481Z,2.20
2023-02-28T13:14:50.967Z,2.10
2023-02-28T13:17:27.101Z,2.20
2023-02-28T13:19:53.868Z,4.70
2023-02-28T13:22:38.730Z,2.20
2023-02-28T13:25:23.620Z,3.70
2023-02-28T13:27:57.913Z,2.20
2023-02-28T13:30:44.950Z,2.30
2023-02-28T13:33:20.797Z,2.50
2023-02-28T13:35:47.620Z,2.50
2023-02-28T13:38:18.596Z,2.60
2023-02-28T13:40:45.358Z,2.60
2023-02-28T13:43:12.012Z,2.60
2023-02-28T13:45:42.606Z,2.70
2023-02-28T13:48:18.237Z,2.90
2023-02-28T13:50:48.336Z,3.00
2023-02-28T13:53:15.032Z,3.10
2023-02-28T13:55:56.561Z,3.10
2023-02-28T13:58:37.209Z,2.90
2023-02-28T14:01:09.244Z,2.80
2023-02-28T14:03:47.766Z,2.80
2023-02-28T14:06:33.812Z,2.70
2023-02-28T14:09:08.825Z,2.70
2023-02-28T14:11:42.052Z,2.80
2023-02-28T14:14:09.983Z,2.90
2023-02-28T14:16:45.735Z,2.90
2023-02-28T14:19:14.270Z,3.00
2023-02-28T14:21:47.926Z,3.10
2023-02-28T14:24:26.707Z,3.10
2023-02-28T14:26:53.251Z,3.00
2023-02-28T14:29:28.767Z,3.00
2023-02-28T14:31:59.027Z,2.90
2023-02-28T14:34:28.453Z,2.90
2023-02-28T14:36:55.812Z,2.90
2023-02-28T14:39:26.368Z,3.00
2023-02-28T14:41:53.049Z,3.00
2023-02-28T14:44:21.083Z,3.00
2023-02-28T14:46:50.212Z,3.10
2023-02-28T14:49:19.825Z,3.10
2023-02-28T14:51:48.314Z,3.20
2023-02-28T14:54:20.644Z,3.20
2023-02-28T14:56:49.831Z,3.30
2023-02-28T14:59:26.551Z,3.30
2023-02-28T15:01:53.474Z,3.30
2023-02-28T15:04:28.356Z,3.30
2023-02-28T15:07:15.241Z,3.40
2023-02-28T15:09:42.329Z,6.10
2023-02-28T15:12:12.477Z,3.40
2023-02-28T15:14:40.170Z,3.40
2023-02-28T15:17:09.511Z,3.40
2023-02-28T15:19:38.489Z,3.30
2023-02-28T15:22:07.231Z,3.40
2023-02-28T15:24:43.293Z,3.40
2023-02-28T15:27:16.569Z,3.40
2023-02-28T15:29:45.240Z,3.40
2023-02-28T15:32:22.128Z,3.40
2023-02-28T15:34:49.049Z,3.40
2023-02-28T15:37:45.179Z,3.40
2023-02-28T15:40:14.841Z,3.40
2023-02-28T15:42:41.533Z,3.40
2023-02-28T15:45:27.159Z,3.40
2023-02-28T15:47:54.806Z,3.30
2023-02-28T15:50:22.876Z,3.40
2023-02-28T15:52:49.514Z,3.40
2023-02-28T15:55:27.999Z,3.40
2023-02-28T15:57:57.440Z,3.30
2023-02-28T16:00:25.922Z,3.30
2023-02-28T16:02:53.099Z,3.30
2023-02-28T16:05:33.856Z,3.30
2023-02-28T16:08:01.910Z,3.30
2023-02-28T16:10:29.420Z,3.30
2023-02-28T16:12:56.935Z,3.30
2023-02-28T16:15:31.879Z,3.30
2023-02-28T16:17:58.802Z,3.20
2023-02-28T16:20:26.929Z,3.20
2023-02-28T16:22:53.708Z,3.20
2023-02-28T16:25:21.716Z,3.20
2023-02-28T16:27:54.680Z,3.10
2023-02-28T16:30:22.988Z,3.10
2023-02-28T16:32:50.350Z,3.00
2023-02-28T16:35:18.681Z,3.00
2023-02-28T16:37:45.633Z,3.00
2023-02-28T16:40:19.335Z,2.90
2023-02-28T16:42:46.382Z,2.90
2023-02-28T16:45:17.208Z,2.90
2023-02-28T16:47:43.788Z,2.80
2023-02-28T16:50:13.823Z,2.80
2023-02-28T16:52:40.369Z,2.70
2023-02-28T16:55:07.032Z,2.70
2023-02-28T16:57:34.028Z,2.60
2023-02-28T17:00:00.683Z,2.60
2023-02-28T17:02:27.400Z,2.50
2023-02-28T17:04:54.072Z,2.40
2023-02-28T17:07:20.632Z,2.40
2023-02-28T17:09:47.264Z,2.30
2023-02-28T17:12:13.928Z,2.20
2023-02-28T17:14:40.629Z,2.10
2023-02-28T17:17:07.943Z,2.10
2023-02-28T17:19:35.613Z,2.00
2023-02-28T17:22:02.319Z,1.90
2023-02-28T17:24:31.137Z,1.90
2023-02-28T17:26:58.175Z,1.80
2023-02-28T17:29:25.380Z,1.80
2023-02-28T17:31:52.079Z,1.70
2023-02-28T17:34:20.463Z,1.60
2023-02-28T17:36:48.076Z,1.60
2023-02-28T17:39:15.072Z,1.50
2023-02-28T17:41:42.722Z,1.50
2023-02-28T17:44:09.956Z,1.40
2023-02-28T17:46:37.006Z,1.40
2023-02-28T17:49:03.769Z,1.30
2023-02-28T17:51:30.479Z,1.30
2023-02-28T17:53:57.190Z,1.20
2023-02-28T17:56:24.696Z,1.20
2023-02-28T17:58:52.355Z,1.10
2023-02-28T18:01:19.040Z,1.20
2023-02-28T18:03:45.643Z,1.10
2023-02-28T18:06:25.498Z,1.00
2023-02-28T18:08:54.843Z,1.00
2023-02-28T18:11:23.008Z,1.00
2023-02-28T18:13:50.804Z,0.90
2023-02-28T18:16:18.033Z,0.90
2023-02-28T18:18:44.693Z,0.90
2023-02-28T18:21:12.537Z,0.80
2023-02-28T18:23:47.556Z,0.80
2023-02-28T18:26:15.040Z,0.80
2023-02-28T18:28:42.626Z,0.70
2023-02-28T18:31:09.452Z,0.70
2023-02-28T18:33:36.084Z,0.70
2023-02-28T18:36:02.725Z,0.60
2023-02-28T18:38:29.362Z,0.60
2023-02-28T18:40:57.046Z,0.50
2023-02-28T18:43:23.720Z,0.50
2023-02-28T18:45:50.298Z,0.40
2023-02-28T18:48:19.000Z,0.40
2023-02-28T18:50:52.107Z,0.40
2023-02-28T18:53:19.178Z,0.30
2023-02-28T18:55:45.930Z,0.30
2023-02-28T18:58:12.902Z,0.30
2023-02-28T19:00:39.555Z,0.20
2023-02-28T19:03:06.196Z,0.20
2023-02-28T19:05:34.498Z,0.20
2023-02-28T19:08:02.020Z,0.10
2023-02-28T19:10:28.575Z,0.00
2023-02-28T19:12:55.653Z,-0.10
2023-02-28T19:15:22.202Z,-0.20
2023-02-28T19:17:49.022Z,-0.40
2023-02-28T19:20:15.802Z,-0.50
2023-02-28T19:22:42.670Z,-0.60
2023-02-28T19:25:09.558Z,-0.70
2023-02-28T19:27:36.308Z,-0.80
2023-02-28T19:30:04.448Z,-0.90
2023-02-28T19:32:31.143Z,-0.90
2023-02-28T19:34:57.869Z,-0.90
2023-02-28T19:37:24.464Z,-1.00
2023-02-28T19:39:54.433Z,-0.90
2023-02-28T19:42:20.996Z,-0.90
2023-02-28T19:44:47.604Z,-0.90
2023-02-28T19:47:14.205Z,-0.90
2023-02-28T19:49:40.822Z,-0.90
2023-02-28T19:52:09.056Z,-0.90
2023-02-28T19:54:37.082Z,-0.90
2023-02-28T19:57:05.248Z,-0.90
2023-02-28T19:59:39.499Z,0.20
2023-02-28T20:02:12.871Z,-1.00
2023-02-28T20:04:39.492Z,-1.00
2023-02-28T20:07:06.111Z,-1.00
2023-02-28T20:09:32.718Z,-1.10
2023-02-28T20:11:59.583Z,-1.00
2023-02-28T20:14:26.445Z,-1.00
2023-02-28T20:16:53.067Z,-1.00
2023-02-28T20:19:19.764Z,-1.10
2023-02-28T20:21:46.777Z,-1.00
2023-02-28T20:24:13.489Z,-1.00
2023-02-28T20:26:40.163Z,-1.10
2023-02-28T20:29:07.596Z,-1.10
2023-02-28T20:31:37.413Z,-1.10
2023-02-28T20:34:04.876Z,-1.10
2023-02-28T20:36:32.073Z,-1.10
2023-02-28T20:39:00.353Z,-1.10
2023-02-28T20:41:27.417Z,-1.10
2023-02-28T20:43:54.952Z,-1.20
2023-02-28T20:46:21.593Z,-1.10
2023-02-28T20:48:48.299Z,-1.10
2023-02-28T20:51:14.922Z,-1.10
2023-02-28T20:53:41.523Z,-1.10
2023-02-28T20:56:13.531Z,-1.10
2023-02-28T20:58:40.188Z,-1.20
2023-02-28T21:01:17.847Z,-1.20
2023-02-28T21:03:45.573Z,-1.20
2023-02-28T21:06:12.540Z,-1.20
2023-02-28T21:08:39.625Z,-1.20
2023-02-28T21:11:14.928Z,-1.20
2023-02-28T21:13:42.150Z,-1.20
2023-02-28T21:16:10.028Z,-1.30
2023-02-28T21:18:37.255Z,-1.30
2023-02-28T21:21:08.190Z,-1.30
2023-02-28T21:23:34.779Z,-1.40
2023-02-28T21:26:05.757Z,-1.40
2023-02-28T21:28:33.101Z,-1.40
2023-02-28T21:31:03.895Z,-1.40
2023-02-28T21:33:31.044Z,-1.40
2023-02-28T21:36:13.091Z,-1.40
2023-02-28T21:38:40.136Z,-1.40
2023-02-28T21:41:08.096Z,-1.50
2023-02-28T21:43:35.077Z,-1.50
2023-02-28T21:46:05.562Z,-1.50
2023-02-28T21:48:32.410Z,-1.50
2023-02-28T21:51:01.411Z,-1.50
2023-02-28T21:53:28.658Z,-1.60
2023-02-28T21:55:55.338Z,-1.60
2023-02-28T21:58:22.202Z,-1.60
2023-02-28T22:00:49.126Z,-1.70
2023-02-28T22:03:15.780Z,-1.70
2023-02-28T22:05:42.496Z,-1.70
2023-02-28T22:08:09.132Z,-1.80
2023-02-28T22:10:35.856Z,-1.80
2023-02-28T22:13:03.703Z,-0.20
2023-02-28T22:15:31.515Z,-0.70
2023-02-28T22:17:58.926Z,-1.80
2023-02-28T22:20:25.624Z,-3.80
2023-02-28T22:22:52.214Z,-1.80
2023-02-28T22:25:19.272Z,-1.80
2023-02-28T22:27:45.964Z,-1.90
2023-02-28T22:30:12.852Z,-2.00
2023-02-28T22:32:39.470Z,-2.00
2023-02-28T22:35:06.439Z,-2.10
2023-02-28T22:37:33.088Z,-2.10
2023-02-28T22:39:59.737Z,-2.20
2023-02-28T22:42:26.417Z,-2.20
2023-02-28T22:44:52.972Z,-2.30
2023-02-28T22:47:19.618Z,-2.30
2023-02-28T22:49:46.269Z,-2.30
2023-02-28T22:52:12.894Z,-2.30
2023-02-28T22:54:39.959Z,-2.40
2023-02-28T22:57:06.570Z,-2.40
2023-02-28T22:59:33.229Z,-2.40
2023-02-28T23:01:59.892Z,-2.40
2023-02-28T23:04:26.941Z,-2.40
2023-02-28T23:06:53.567Z,-1.50
2023-02-28T23:09:21.611Z,-2.40
2023-02-28T23:11:49.302Z,-2.20
2023-02-28T23:14:16.942Z,-2.40
2023-02-28T23:16:44.872Z,-2.40
2023-02-28T23:19:13.994Z,-0.70
2023-02-28T23:21:40.658Z,-2.50
2023-02-28T23:24:10.479Z,-2.50
2023-02-28T23:26:39.411Z,-2.60
2023-02-28T23:29:06.312Z,-2.60
2023-02-28T23:31:33.918Z,-2.70
2023-02-28T23:34:00.749Z,-0.80
2023-02-28T23:36:27.338Z,-2.70
2023-02-28T23:38:54.007Z,-2.70
2023-02-28T23:41:22.069Z,-2.70
2023-02-28T23:43:49.455Z,-0.30
2023-02-28T23:46:16.222Z,-2.70
2023-02-28T23:48:43.072Z,-2.70
2023-02-28T23:51:11.198Z,-2.80
2023-02-28T23:53:38.851Z,-2.80
2023-02-28T23:56:06.153Z,-2.80
2023-02-28T23:58:32.788Z,-2.80
